createdAt,value
2024-01-15T00:00:26.040Z,96178.38
2024-01-15T00:02:52.879Z,96182.31
2024-01-15T00:05:19.750Z,96172.88
2024-01-15T00:07:46.809Z,96176.03
2024-01-15T00:10:13.642Z,96180.75
2024-01-15T00:12:40.573Z,96170.78
2024-01-15T00:15:07.905Z,96169.84
2024-01-15T00:17:34.841Z,96164.63
2024-01-15T00:20:02.082Z,96160.16
2024-01-15T00:22:29.040Z,96161.38
2024-01-15T00:24:56.023Z,96155.97
2024-01-15T00:27:23.249Z,96157.34
2024-01-15T00:29:51.638Z,96155.16
2024-01-15T00:32:18.480Z,96152.72
2024-01-15T00:34:45.732Z,96152.88
2024-01-15T00:37:13.061Z,96159.00
2024-01-15T00:39:39.958Z,96149.81
2024-01-15T00:42:06.843Z,96140.84
2024-01-15T00:44:33.681Z,96138.56
2024-01-15T00:47:00.852Z,96135.94
2024-01-15T00:49:28.319Z,96138.06
2024-01-15T00:51:55.423Z,96141.84
2024-01-15T00:54:22.342Z,96134.94
2024-01-15T00:56:54.596Z,96135.56
2024-01-15T00:59:21.932Z,96139.38
2024-01-15T01:01:49.119Z,96140.84
2024-01-15T01:04:15.985Z,96145.84
2024-01-15T01:06:43.023Z,96139.50
2024-01-15T01:09:09.992Z,96141.38
2024-01-15T01:11:40.199Z,96130.69
2024-01-15T01:14:07.617Z,96124.63
2024-01-15T01:16:40.293Z,96132.47
2024-01-15T01:19:08.427Z,96140.31
2024-01-15T01:21:35.672Z,96146.63
2024-01-15T01:24:02.509Z,96154.72
2024-01-15T01:26:29.317Z,96155.19
2024-01-15T01:28:56.465Z,96159.09
2024-01-15T01:31:24.379Z,96160.41
2024-01-15T01:33:51.388Z,96161.94
2024-01-15T01:36:18.272Z,96154.13
2024-01-15T01:38:45.132Z,96147.19
2024-01-15T01:41:12.225Z,96147.47
2024-01-15T01:43:39.083Z,96156.59
2024-01-15T01:46:05.911Z,96151.91
2024-01-15T01:48:32.781Z,96137.59
2024-01-15T01:51:01.435Z,96136.28
2024-01-15T01:53:28.548Z,96140.38
2024-01-15T01:55:55.828Z,96127.25
2024-01-15T01:58:22.637Z,96135.16
2024-01-15T02:00:50.621Z,96126.13
2024-01-15T02:03:17.637Z,96132.13
2024-01-15T02:05:46.184Z,96124.00
2024-01-15T02:08:13.308Z,96134.50
2024-01-15T02:10:40.114Z,96143.25
2024-01-15T02:13:07.055Z,96139.75
2024-01-15T02:15:33.941Z,96143.75
2024-01-15T02:18:02.331Z,96138.59
2024-01-15T02:20:29.601Z,96129.25
2024-01-15T02:23:20.687Z,96122.03
2024-01-15T02:25:48.001Z,96136.16
2024-01-15T02:28:18.545Z,96148.84
2024-01-15T02:30:45.907Z,96157.69
2024-01-15T02:33:13.587Z,96167.19
2024-01-15T02:35:41.091Z,96155.75
2024-01-15T02:38:08.091Z,96157.59
2024-01-15T02:40:36.153Z,96160.53
2024-01-15T02:43:03.024Z,96156.00
2024-01-15T02:45:30.079Z,96144.66
2024-01-15T02:47:57.377Z,96150.13
2024-01-15T02:50:24.278Z,96152.00
2024-01-15T02:52:51.540Z,96151.56
2024-01-15T02:55:18.282Z,96142.53
2024-01-15T02:57:45.306Z,96153.41
2024-01-15T03:00:13.016Z,96156.91
2024-01-15T03:02:42.981Z,96157.59
2024-01-15T03:05:11.511Z,96166.03
2024-01-15T03:07:38.715Z,96168.59
2024-01-15T03:10:14.191Z,96168.47
2024-01-15T03:12:41.075Z,96167.19
2024-01-15T03:15:08.233Z,96163.22
2024-01-15T03:17:35.142Z,96158.31
2024-01-15T03:20:02.927Z,96166.72
2024-01-15T03:22:29.772Z,96157.84
2024-01-15T03:24:56.696Z,96160.66
2024-01-15T03:27:23.524Z,96164.25
2024-01-15T03:29:55.631Z,96161.91
2024-01-15T03:32:22.451Z,96158.19
2024-01-15T03:34:49.702Z,96151.91
2024-01-15T03:37:16.668Z,96149.31
2024-01-15T03:39:43.503Z,96136.97
2024-01-15T03:42:10.408Z,96108.03
2024-01-15T03:44:37.257Z,96120.50
2024-01-15T03:47:04.111Z,96133.13
2024-01-15T03:49:31.356Z,96139.31
2024-01-15T03:51:58.290Z,96142.69
2024-01-15T03:54:28.386Z,96147.34
2024-01-15T03:56:55.204Z,96153.53
2024-01-15T03:59:22.002Z,96140.09
2024-01-15T04:01:52.174Z,96132.66
2024-01-15T04:04:19.615Z,96141.63
2024-01-15T04:06:46.742Z,96138.34
2024-01-15T04:09:14.926Z,96140.00
2024-01-15T04:11:41.859Z,96131.50
2024-01-15T04:14:08.601Z,96124.38
2024-01-15T04:16:35.834Z,96134.53
2024-01-15T04:19:02.844Z,96127.66
2024-01-15T04:21:29.889Z,96132.75
2024-01-15T04:23:56.671Z,96131.59
2024-01-15T04:26:23.547Z,96134.84
2024-01-15T04:28:50.851Z,96134.94
2024-01-15T04:31:28.845Z,96129.22
2024-01-15T04:33:56.073Z,96127.88
2024-01-15T04:36:26.324Z,96128.91
2024-01-15T04:38:53.122Z,96125.91
2024-01-15T04:41:20.081Z,96144.78
2024-01-15T04:43:47.757Z,96137.06
2024-01-15T04:46:14.614Z,96144.41
2024-01-15T04:48:41.554Z,96132.53
2024-01-15T04:51:10.354Z,96128.53
2024-01-15T04:53:37.329Z,96133.66
2024-01-15T04:56:04.371Z,96135.78
2024-01-15T04:58:31.562Z,96136.63
2024-01-15T05:01:01.427Z,96136.22
2024-01-15T05:03:28.475Z,96141.13
2024-01-15T05:05:55.408Z,96143.59
2024-01-15T05:08:22.531Z,96141.94
2024-01-15T05:10:49.733Z,96136.44
2024-01-15T05:13:16.582Z,96136.25
2024-01-15T05:15:43.563Z,96132.72
2024-01-15T05:18:11.167Z,96133.66
2024-01-15T05:20:38.085Z,96133.78
2024-01-15T05:23:07.654Z,96137.84
2024-01-15T05:25:34.886Z,96139.25
2024-01-15T05:28:01.680Z,96124.28
2024-01-15T05:30:28.795Z,96132.69
2024-01-15T05:32:55.935Z,96143.69
2024-01-15T05:35:22.805Z,96132.38
2024-01-15T05:37:49.904Z,96133.91
2024-01-15T05:40:16.755Z,96131.66
2024-01-15T05:42:43.672Z,96135.50
2024-01-15T05:45:10.825Z,96134.94
2024-01-15T05:47:37.888Z,96132.06
2024-01-15T05:50:06.547Z,96133.75
2024-01-15T05:52:33.829Z,96142.25
2024-01-15T05:55:00.718Z,96142.97
2024-01-15T05:57:27.662Z,96142.50
2024-01-15T05:59:54.599Z,96133.59
2024-01-15T06:02:22.736Z,96141.88
2024-01-15T06:04:49.715Z,96141.41
2024-01-15T06:07:16.858Z,96149.38
2024-01-15T06:09:43.700Z,96136.28
2024-01-15T06:12:13.870Z,96139.22
2024-01-15T06:14:40.763Z,96135.53
2024-01-15T06:17:07.695Z,96130.81
2024-01-15T06:19:37.606Z,96128.91
2024-01-15T06:22:05.272Z,96124.38
2024-01-15T06:24:32.363Z,96128.78
2024-01-15T06:26:59.357Z,96124.88
2024-01-15T06:29:29.350Z,96123.38
2024-01-15T06:31:56.262Z,96128.34
2024-01-15T06:34:23.380Z,96132.72
2024-01-15T06:36:50.348Z,96130.00
2024-01-15T06:39:17.492Z,96128.16
2024-01-15T06:41:47.006Z,96130.31
2024-01-15T06:44:14.219Z,96122.38
2024-01-15T06:46:44.461Z,96112.03
2024-01-15T06:49:11.893Z,96108.53
2024-01-15T06:51:39.466Z,96108.78
2024-01-15T06:54:06.488Z,96116.41
2024-01-15T06:56:33.472Z,96107.59
2024-01-15T06:59:00.369Z,96110.09
2024-01-15T07:01:27.353Z,96124.53
2024-01-15T07:03:54.633Z,96127.94
2024-01-15T07:06:22.035Z,96128.63
2024-01-15T07:08:48.875Z,96114.22
2024-01-15T07:11:15.753Z,96117.91
2024-01-15T07:13:42.833Z,96113.91
2024-01-15T07:16:09.971Z,96116.97
2024-01-15T07:18:36.930Z,96124.06
2024-01-15T07:21:04.088Z,96115.88
2024-01-15T07:23:32.416Z,96102.47
2024-01-15T07:25:59.235Z,96102.50
2024-01-15T07:28:26.046Z,96101.09
2024-01-15T07:30:53.560Z,96103.75
2024-01-15T07:33:21.424Z,96108.16
2024-01-15T07:35:48.272Z,96116.94
2024-01-15T07:38:15.139Z,96117.34
2024-01-15T07:40:42.049Z,96116.56
2024-01-15T07:43:10.136Z,96099.53
2024-01-15T07:45:37.396Z,96110.50
2024-01-15T07:48:05.169Z,96113.81
2024-01-15T07:50:32.119Z,96115.72
2024-01-15T07:53:00.078Z,96122.59
2024-01-15T07:55:27.770Z,96118.63
2024-01-15T07:58:11.118Z,96120.97
2024-01-15T08:00:42.362Z,96128.41
2024-01-15T08:03:11.664Z,96126.38
2024-01-15T08:05:41.609Z,96119.53
2024-01-15T08:08:08.440Z,96108.59
2024-01-15T08:10:35.308Z,96119.38
2024-01-15T08:13:02.564Z,96119.03
2024-01-15T08:15:31.522Z,96114.09
2024-01-15T08:17:59.881Z,96112.28
2024-01-15T08:20:27.277Z,96114.78
2024-01-15T08:22:54.435Z,96113.63
2024-01-15T08:25:22.153Z,96111.06
2024-01-15T08:27:49.115Z,96123.03
2024-01-15T08:30:16.283Z,96116.97
2024-01-15T08:32:44.100Z,96116.22
2024-01-15T08:35:11.536Z,96116.81
2024-01-15T08:37:39.504Z,96120.47
2024-01-15T08:40:08.340Z,96121.69
2024-01-15T08:42:35.416Z,96118.69
2024-01-15T08:45:03.001Z,96127.94
2024-01-15T08:47:29.910Z,96128.09
2024-01-15T08:49:56.800Z,96120.38
2024-01-15T08:52:23.692Z,96116.81
2024-01-15T08:54:50.554Z,96120.22
2024-01-15T08:57:17.492Z,96126.19
2024-01-15T08:59:44.487Z,96112.94
2024-01-15T09:02:11.238Z,96126.22
2024-01-15T09:04:38.278Z,96132.25
2024-01-15T09:07:05.639Z,96136.91
2024-01-15T09:09:32.499Z,96116.94
2024-01-15T09:11:59.390Z,96121.91
2024-01-15T09:14:35.692Z,96115.50
2024-01-15T09:17:05.863Z,96119.72
2024-01-15T09:19:32.962Z,96116.44
2024-01-15T09:22:00.338Z,96121.91
2024-01-15T09:24:28.567Z,96111.78
2024-01-15T09:26:56.401Z,96118.63
2024-01-15T09:29:25.218Z,96124.00
2024-01-15T09:31:52.769Z,96115.28
2024-01-15T09:34:20.234Z,96117.06
2024-01-15T09:36:47.268Z,96117.84
2024-01-15T09:39:14.217Z,96119.78
2024-01-15T09:41:41.097Z,96107.94
2024-01-15T09:44:10.728Z,96115.28
2024-01-15T09:46:37.509Z,96116.59
2024-01-15T09:49:04.391Z,96123.31
2024-01-15T09:51:34.645Z,96126.81
2024-01-15T09:54:02.894Z,96130.41
2024-01-15T09:56:29.782Z,96113.16
2024-01-15T09:58:58.478Z,96118.16
2024-01-15T10:01:25.714Z,96112.69
2024-01-15T10:03:52.668Z,96109.25
2024-01-15T10:06:22.148Z,96108.59
2024-01-15T10:08:59.845Z,96102.53
2024-01-15T10:11:27.047Z,96095.91
2024-01-15T10:13:57.561Z,96090.47
2024-01-15T10:16:25.155Z,96082.75
2024-01-15T10:18:52.629Z,96070.28
2024-01-15T10:21:19.520Z,96075.75
2024-01-15T10:23:46.321Z,96064.09
2024-01-15T10:26:19.208Z,96065.69
2024-01-15T10:28:46.483Z,96071.13
2024-01-15T10:31:13.279Z,96066.56
2024-01-15T10:33:40.303Z,96067.00
2024-01-15T10:36:07.650Z,96050.97
2024-01-15T10:38:34.555Z,96056.81
2024-01-15T10:41:01.344Z,96048.28
2024-01-15T10:43:29.560Z,96051.06
2024-01-15T10:45:56.935Z,96051.88
2024-01-15T10:48:24.280Z,96041.22
2024-01-15T10:50:51.333Z,96044.75
2024-01-15T10:53:18.339Z,96042.25
2024-01-15T10:55:45.591Z,96049.03
2024-01-15T10:58:12.545Z,96043.25
2024-01-15T11:00:39.678Z,96044.66
2024-01-15T11:03:07.270Z,96043.78
2024-01-15T11:05:43.762Z,96035.56
2024-01-15T11:08:10.894Z,96034.94
2024-01-15T11:10:53.122Z,96031.91
2024-01-15T11:13:27.168Z,96039.75
2024-01-15T11:16:06.175Z,96045.16
2024-01-15T11:18:41.283Z,96043.75
2024-01-15T11:21:08.762Z,96046.31
2024-01-15T11:23:50.568Z,96045.69
2024-01-15T11:26:38.403Z,96043.38
2024-01-15T11:29:07.494Z,96047.03
2024-01-15T11:31:48.172Z,96053.94
2024-01-15T11:34:15.163Z,96054.38
2024-01-15T11:36:51.598Z,96054.91
2024-01-15T11:39:31.778Z,96058.44
2024-01-15T11:42:02.499Z,96058.72
2024-01-15T11:44:29.357Z,96055.19
2024-01-15T11:47:16.488Z,96056.53
2024-01-15T11:50:15.572Z,96044.19
2024-01-15T11:52:42.425Z,96037.81
2024-01-15T11:55:12.070Z,96036.72
2024-01-15T11:57:55.751Z,96031.84
2024-01-15T12:00:23.648Z,96022.91
2024-01-15T12:02:50.719Z,96016.34
2024-01-15T12:05:19.432Z,96012.41
2024-01-15T12:07:47.374Z,96017.03
2024-01-15T12:10:17.696Z,96022.19
2024-01-15T12:13:02.224Z,96027.09
2024-01-15T12:15:30.136Z,96033.56
2024-01-15T12:18:00.886Z,96032.75
2024-01-15T12:20:28.012Z,96029.09
2024-01-15T12:23:01.500Z,96029.03
2024-01-15T12:25:30.638Z,96026.66
2024-01-15T12:27:57.797Z,96032.16
2024-01-15T12:30:24.892Z,96033.31
2024-01-15T12:32:52.044Z,96040.69
2024-01-15T12:35:18.985Z,96030.75
2024-01-15T12:37:47.659Z,96025.59
2024-01-15T12:40:20.761Z,96024.50
2024-01-15T12:42:47.808Z,96019.09
2024-01-15T12:45:14.993Z,96018.00
2024-01-15T12:47:42.577Z,96020.59
2024-01-15T12:50:16.596Z,96004.44
2024-01-15T12:52:46.867Z,96010.22
2024-01-15T12:55:15.950Z,96017.16
2024-01-15T12:57:43.155Z,96020.28
2024-01-15T13:00:14.583Z,96018.91
2024-01-15T13:02:43.361Z,96023.66
2024-01-15T13:05:12.959Z,96025.69
2024-01-15T13:07:40.736Z,96020.31
2024-01-15T13:10:07.983Z,96018.53
2024-01-15T13:12:38.973Z,96021.13
2024-01-15T13:15:06.296Z,96017.56
2024-01-15T13:17:33.298Z,96014.75
2024-01-15T13:20:01.489Z,96023.00
2024-01-15T13:22:33.553Z,96019.47
2024-01-15T13:25:02.025Z,96020.97
2024-01-15T13:27:29.888Z,96021.50
2024-01-15T13:29:56.950Z,96027.34
2024-01-15T13:32:27.705Z,96026.53
2024-01-15T13:34:56.772Z,96033.56
2024-01-15T13:37:25.817Z,96040.34
2024-01-15T13:39:53.978Z,96034.44
2024-01-15T13:42:23.605Z,96031.22
2024-01-15T13:44:50.767Z,96040.81
2024-01-15T13:47:17.730Z,96036.88
2024-01-15T13:49:44.633Z,96036.63
2024-01-15T13:52:11.464Z,96030.88
2024-01-15T13:54:48.023Z,96029.69
2024-01-15T13:57:18.080Z,96025.66
2024-01-15T13:59:45.180Z,96038.41
2024-01-15T14:02:18.190Z,96040.19
2024-01-15T14:04:49.142Z,96024.34
2024-01-15T14:07:19.292Z,96019.19
2024-01-15T14:09:46.568Z,96024.22
2024-01-15T14:12:13.624Z,96013.38
2024-01-15T14:14:41.612Z,96003.91
2024-01-15T14:17:11.138Z,96015.16
2024-01-15T14:19:40.735Z,96020.81
2024-01-15T14:22:07.855Z,96015.38
2024-01-15T14:24:36.019Z,96019.44
2024-01-15T14:27:02.777Z,96019.34
2024-01-15T14:29:29.792Z,96017.84
2024-01-15T14:31:56.735Z,96021.50
2024-01-15T14:34:27.250Z,96022.34
2024-01-15T14:36:59.926Z,96023.16
2024-01-15T14:39:29.986Z,96022.75
2024-01-15T14:41:56.852Z,96031.28
2024-01-15T14:44:23.934Z,96020.16
2024-01-15T14:46:51.419Z,96028.00
2024-01-15T14:49:18.909Z,96033.88
2024-01-15T14:51:46.234Z,96032.81
2024-01-15T14:54:13.128Z,96032.09
2024-01-15T14:56:40.085Z,96036.06
2024-01-15T14:59:06.965Z,96041.06
2024-01-15T15:01:34.035Z,96041.88
2024-01-15T15:04:01.056Z,96047.44
2024-01-15T15:06:29.548Z,96047.03
2024-01-15T15:08:58.873Z,96037.78
2024-01-15T15:11:29.647Z,96042.94
2024-01-15T15:13:56.600Z,96052.72
2024-01-15T15:16:23.424Z,96056.69
2024-01-15T15:18:50.684Z,96067.28
2024-01-15T15:21:17.915Z,96079.59
2024-01-15T15:23:45.094Z,96084.63
2024-01-15T15:26:13.610Z,96081.94
2024-01-15T15:28:40.463Z,96089.78
2024-01-15T15:31:12.892Z,96093.84
2024-01-15T15:33:40.230Z,96086.25
2024-01-15T15:36:07.612Z,96091.16
2024-01-15T15:38:35.901Z,96091.00
2024-01-15T15:41:02.792Z,96097.91
2024-01-15T15:43:29.785Z,96088.97
2024-01-15T15:45:57.376Z,96090.03
2024-01-15T15:48:24.548Z,96096.31
2024-01-15T15:50:52.516Z,96106.06
2024-01-15T15:53:23.437Z,96104.59
2024-01-15T15:55:50.664Z,96098.59
2024-01-15T15:58:17.450Z,96104.59
2024-01-15T16:00:44.389Z,96103.19
2024-01-15T16:03:11.224Z,96108.06
2024-01-15T16:05:45.577Z,96105.63
2024-01-15T16:08:19.064Z,96103.59
2024-01-15T16:10:47.414Z,96102.22
2024-01-15T16:13:15.292Z,96100.22
2024-01-15T16:15:42.271Z,96096.53
2024-01-15T16:23:19.052Z,96098.41
2024-01-15T16:23:33.470Z,96104.34
2024-01-15T16:24:08.193Z,96106.25
2024-01-15T16:26:29.777Z,96112.59
2024-01-15T16:28:58.039Z,96113.53
2024-01-15T16:31:25.228Z,96121.53
2024-01-15T16:33:55.575Z,96116.44
2024-01-15T16:36:26.519Z,96129.22
2024-01-15T16:38:53.605Z,96124.88
2024-01-15T16:41:20.516Z,96113.47
2024-01-15T16:43:47.624Z,96111.88
2024-01-15T16:46:14.450Z,96117.63
2024-01-15T16:48:41.323Z,96116.16
2024-01-15T16:51:08.203Z,96127.41
2024-01-15T16:53:35.112Z,96133.00
2024-01-15T16:56:02.089Z,96129.84
2024-01-15T16:58:28.940Z,96131.25
2024-01-15T17:00:55.762Z,96134.25
2024-01-15T17:03:22.965Z,96123.88
2024-01-15T17:05:49.821Z,96138.22
2024-01-15T17:08:19.236Z,96140.91
2024-01-15T17:10:46.057Z,96136.19
2024-01-15T17:13:12.885Z,96141.34
2024-01-15T17:15:41.038Z,96143.22
2024-01-15T17:18:08.846Z,96153.28
2024-01-15T17:20:35.912Z,96153.69
2024-01-15T17:23:02.829Z,96152.94
2024-01-15T17:25:31.755Z,96156.72
2024-01-15T17:27:58.611Z,96158.06
2024-01-15T17:30:25.716Z,96159.44
2024-01-15T17:32:52.720Z,96160.81
2024-01-15T17:35:19.936Z,96159.16
2024-01-15T17:37:46.856Z,96158.22
2024-01-15T17:40:13.637Z,96160.22
2024-01-15T17:42:40.481Z,96160.66
2024-01-15T17:45:12.505Z,96164.06
2024-01-15T17:47:42.413Z,96156.84
2024-01-15T17:50:09.527Z,96162.03
2024-01-15T17:52:37.642Z,96170.03
2024-01-15T17:55:04.776Z,96171.94
2024-01-15T17:57:31.566Z,96167.06
2024-01-15T17:59:58.672Z,96167.72
2024-01-15T18:02:25.589Z,96176.00
2024-01-15T18:04:58.569Z,96186.88
2024-01-15T18:07:25.793Z,96192.16
2024-01-15T18:09:56.590Z,96190.81
2024-01-15T18:12:25.329Z,96195.81
2024-01-15T18:14:52.163Z,96197.16
2024-01-15T18:17:19.093Z,96197.84
2024-01-15T18:19:45.974Z,96202.97
2024-01-15T18:22:14.260Z,96207.72
2024-01-15T18:24:41.164Z,96203.91
2024-01-15T18:27:09.595Z,96200.63
2024-01-15T18:29:36.480Z,96199.94
2024-01-15T18:32:04.010Z,96199.50
2024-01-15T18:34:31.012Z,96202.59
2024-01-15T18:36:58.082Z,96202.13
2024-01-15T18:39:24.976Z,96194.34
2024-01-15T18:41:54.627Z,96205.16
2024-01-15T18:44:23.017Z,96196.75
2024-01-15T18:46:50.218Z,96201.72
2024-01-15T18:49:19.685Z,96194.91
2024-01-15T18:51:49.254Z,96196.31
2024-01-15T18:54:17.224Z,96204.81
2024-01-15T18:56:44.763Z,96211.09
2024-01-15T18:59:12.660Z,96220.44
2024-01-15T19:01:39.754Z,96226.53
2024-01-15T19:04:06.592Z,96230.13
2024-01-15T19:06:33.421Z,96230.25
2024-01-15T19:09:00.266Z,96229.03
2024-01-15T19:11:27.468Z,96228.59
2024-01-15T19:13:54.664Z,96227.97
2024-01-15T19:16:24.377Z,96223.22
2024-01-15T19:18:52.228Z,96231.78
2024-01-15T19:21:19.211Z,96239.69
2024-01-15T19:23:46.084Z,96236.81
2024-01-15T19:26:20.263Z,96243.22
2024-01-15T19:28:47.568Z,96255.28
2024-01-15T19:31:14.503Z,96258.38
2024-01-15T19:33:43.713Z,96262.19
2024-01-15T19:36:22.220Z,96277.53
2024-01-15T19:38:49.661Z,96280.00
2024-01-15T19:41:16.898Z,96286.31
2024-01-15T19:43:43.718Z,96281.88
2024-01-15T19:46:10.536Z,96285.78
2024-01-15T19:48:37.942Z,96292.31
2024-01-15T19:51:05.090Z,96291.78
2024-01-15T19:53:31.874Z,96282.25
2024-01-15T19:55:59.082Z,96295.50
2024-01-15T19:58:25.949Z,96296.91
2024-01-15T20:00:53.059Z,96304.50
2024-01-15T20:03:19.910Z,96317.16
2024-01-15T20:05:52.418Z,96307.16
2024-01-15T20:08:19.501Z,96315.38
2024-01-15T20:10:46.379Z,96324.53
2024-01-15T20:13:13.105Z,96325.81
2024-01-15T20:15:45.488Z,96322.13
2024-01-15T20:18:12.463Z,96324.88
2024-01-15T20:20:44.208Z,96325.63
2024-01-15T20:23:11.217Z,96341.66
2024-01-15T20:25:38.571Z,96336.91
2024-01-15T20:28:08.320Z,96343.31
2024-01-15T20:30:35.069Z,96340.66
2024-01-15T20:33:02.292Z,96346.13
2024-01-15T20:35:30.075Z,96353.84
2024-01-15T20:37:58.628Z,96359.28
2024-01-15T20:40:25.784Z,96358.31
2024-01-15T20:42:52.676Z,96361.53
2024-01-15T20:45:19.626Z,96367.03
2024-01-15T20:47:46.443Z,96361.66
2024-01-15T20:50:13.732Z,96365.66
2024-01-15T20:52:40.679Z,96371.84
2024-01-15T20:55:07.903Z,96372.66
2024-01-15T20:57:34.796Z,96377.75
2024-01-15T21:00:01.674Z,96371.56
2024-01-15T21:02:28.934Z,96379.16
2024-01-15T21:04:56.540Z,96382.97
2024-01-15T21:07:29.256Z,96391.69
2024-01-15T21:09:56.317Z,96397.28
2024-01-15T21:12:23.242Z,96399.06
2024-01-15T21:14:50.193Z,96403.59
2024-01-15T21:17:17.059Z,96403.53
2024-01-15T21:19:47.012Z,96400.91
2024-01-15T21:22:13.990Z,96408.66
2024-01-15T21:24:40.823Z,96414.06
2024-01-15T21:27:07.572Z,96409.72
2024-01-15T21:29:34.414Z,96417.22
2024-01-15T21:32:01.288Z,96422.69
2024-01-15T21:34:28.211Z,96416.97
2024-01-15T21:36:55.346Z,96431.19
2024-01-15T21:39:22.184Z,96435.91
2024-01-15T21:41:50.626Z,96435.41
2024-01-15T21:44:20.671Z,96429.34
2024-01-15T21:46:47.594Z,96426.69
2024-01-15T21:49:14.707Z,96434.72
2024-01-15T21:51:41.512Z,96437.00
2024-01-15T21:54:08.841Z,96434.31
2024-01-15T21:56:35.682Z,96439.88
2024-01-15T21:59:02.500Z,96449.41
2024-01-15T22:01:29.761Z,96454.75
2024-01-15T22:03:59.703Z,96459.28
2024-01-15T22:06:26.692Z,96455.56
2024-01-15T22:08:53.712Z,96467.56
2024-01-15T22:11:20.609Z,96465.25
2024-01-15T22:13:47.433Z,96471.66
2024-01-15T22:16:14.536Z,96474.88
2024-01-15T22:18:41.439Z,96478.28
2024-01-15T22:21:08.309Z,96480.25
2024-01-15T22:23:35.170Z,96481.44
2024-01-15T22:26:02.540Z,96490.28
2024-01-15T22:28:32.272Z,96483.94
2024-01-15T22:30:59.407Z,96491.88
2024-01-15T22:33:26.329Z,96498.97
2024-01-15T22:35:53.308Z,96491.69
2024-01-15T22:38:20.163Z,96492.38
2024-01-15T22:40:46.991Z,96494.72
2024-01-15T22:43:13.815Z,96505.06
2024-01-15T22:45:40.722Z,96502.78
2024-01-15T22:48:08.385Z,96507.22
2024-01-15T22:50:35.400Z,96510.63
2024-01-15T22:53:02.279Z,96511.56
2024-01-15T22:55:29.216Z,96514.66
2024-01-15T22:57:59.282Z,96519.00
2024-01-15T23:00:26.102Z,96523.22
2024-01-15T23:03:00.846Z,96526.19
2024-01-15T23:05:28.231Z,96530.44
2024-01-15T23:07:58.396Z,96541.69
2024-01-15T23:10:25.265Z,96545.50
2024-01-15T23:12:52.458Z,96547.97
2024-01-15T23:15:19.439Z,96540.16
2024-01-15T23:17:47.552Z,96543.47
2024-01-15T23:20:14.524Z,96551.25
2024-01-15T23:22:41.375Z,96559.59
2024-01-15T23:25:09.182Z,96547.81
2024-01-15T23:27:39.560Z,96557.25
2024-01-15T23:30:07.107Z,96557.50
2024-01-15T23:32:34.146Z,96561.56
2024-01-15T23:35:02.544Z,96553.88
2024-01-15T23:37:30.326Z,96561.28
2024-01-15T23:39:57.601Z,96557.22
2024-01-15T23:42:27.840Z,96562.13
2024-01-15T23:44:54.673Z,96560.16
2024-01-15T23:47:21.528Z,96559.72
2024-01-15T23:49:48.373Z,96572.72
2024-01-15T23:52:15.453Z,96587.81
2024-01-15T23:54:42.261Z,96584.56
2024-01-15T23:57:09.111Z,96587.38
2024-01-15T23:59:38.988Z,96575.78
